Terminal Aerodrome Forecast
Issued by NWS

Home | Current Version | Previous Version | Text Only | Print | Product List | Glossary On
Versions: 1 2 3 4 5 6 7 8 9 10 11
464
FTUS43 KILX 260254 AAA
TAFBMI
TAF AMD
KBMI 260254Z 2603/2624 17016KT P6SM BKN100
     FM261200 18014KT P6SM VCSH SCT018 OVC030
     FM261700 20014G22KT P6SM VCTS BKN035CB
     FM262200 19015KT 4SM -SHRA VCTS SCT006 OVC012CB=

USA.gov is the U.S. government's official web portal to all federal, state and local government web resources and services.